McCook, NE

8:19 AM CDT on March 24, 2017 (GMT -0500)
KNEMCCOO2 | | Change Station

Elev 2609 ft 40.21 °N, 100.64 °W | Updated 8 minutes ago

Light Rain
Light Rain Mist
47.8 °F
Feels Like 43 °F
N
11.6
Wind Variable Wind from NNE
Gusts 26.3 mph

Today
High -- | Low -- °F
--% Chance of Precip.
Yesterday
High -- | Low -- °F
Precip. -- in
Pressure 29.69 in
Visibility 6.0 miles
Clouds Overcast 1000 ft
Windchill 43 °F
Dew Point 45 °F
Humidity 91%
Rainfall 0.49 in
Snow Depth Not available.
7:38 AM 7:59 PM
Waning Crescent, 15% visible
METAR KMCK 241253Z AUTO 03030G39KT 6SM -RA BR OVC010 08/08 A2974 RMK AO2 PK WND 03039/1253 LTG DSNT NE RAB29 CIG 009V014 SLP054 P0000 T00830078 $
Pressure 29.69 in
Visibility 6.0 miles
Clouds Overcast 1000 ft
Windchill 43 °F
Dew Point 45 °F
Humidity 91%
Rainfall 0.49 in
Snow Depth Not available.
7:38 AM 7:59 PM
Waning Crescent, 15% visible
METAR KMCK 241253Z AUTO 03030G39KT 6SM -RA BR OVC010 08/08 A2974 RMK AO2 PK WND 03039/1253 LTG DSNT NE RAB29 CIG 009V014 SLP054 P0000 T00830078 $

Get Severe Weather Alerts

Thanks for signing up!

Be on the lookout for a verification email in your inbox.

You'll start receiving the daily forecast at 8 AM.

×

10-Day Weather Forecast

Almanac

Astronomy

Mar. 24, 2017 Rise Set
Actual Time
Civil Twilight
Nautical Twilight
Astronomical Twilight
Moon
Length of Visible Light
Length of Day
Tomorrow will be .
, % of the Moon is Illuminated

Today's Extremes

State Highs State Lows

Community

WunderPhotos

Upload Photos

1,962,540 photos uploaded!

WunderBlog® & News

Nearby

Air Quality

  Air Quality AQ Index Pollutant
Not available.

Snow Depth

Station Depth Elevation

Earthquake Activity

City Distance Mag. Time & Date
Minimum magnitude displayed is 2.5.

Earthquake Activity

City Distance Mag. Time & Date
Minimum magnitude displayed is 2.5.

Coastal Water Temperatures

Place Temperature

Stations

Nearby Weather Stations

Station Location Temp. Windchill Dew Point Humidity Wind Precip. Elev Updated Type
                   

Watches & Warnings

There are currently no watches in effect.